createdAt,value
2022-08-20T00:01:02.568Z,16.94
2022-08-20T00:04:11.174Z,16.95
2022-08-20T00:07:20.859Z,16.97
2022-08-20T00:10:34.842Z,16.99
2022-08-20T00:13:47.932Z,16.93
2022-08-20T00:16:56.683Z,16.90
2022-08-20T00:20:14.729Z,16.98
2022-08-20T00:23:24.625Z,16.98
2022-08-20T00:26:34.933Z,17.01
2022-08-20T00:29:46.540Z,16.93
2022-08-20T00:32:59.008Z,16.99
2022-08-20T00:36:10.899Z,17.00
2022-08-20T00:39:19.361Z,16.92
2022-08-20T00:42:29.541Z,17.03
2022-08-20T00:45:39.639Z,16.90
2022-08-20T00:48:52.217Z,16.86
2022-08-20T00:52:08.347Z,16.90
2022-08-20T00:55:20.992Z,16.97
2022-08-20T00:58:31.036Z,16.87
2022-08-20T01:01:55.098Z,16.97
2022-08-20T01:05:09.272Z,16.92
2022-08-20T01:08:24.756Z,17.00
2022-08-20T01:11:37.225Z,17.09
2022-08-20T01:14:48.674Z,17.02
2022-08-20T01:18:00.257Z,17.13
2022-08-20T01:21:09.704Z,16.88
2022-08-20T01:24:28.710Z,16.95
2022-08-20T01:27:42.782Z,16.92
2022-08-20T01:30:51.698Z,17.11
2022-08-20T01:34:04.186Z,17.17
2022-08-20T01:37:12.473Z,16.94
2022-08-20T01:40:41.129Z,16.91
2022-08-20T01:43:57.158Z,17.07
2022-08-20T01:47:16.268Z,17.10
2022-08-20T01:50:32.279Z,16.93
2022-08-20T01:53:48.283Z,16.86
2022-08-20T01:57:03.761Z,16.95
2022-08-20T02:00:20.206Z,16.91
2022-08-20T02:03:34.813Z,16.87
2022-08-20T02:06:57.203Z,16.86
2022-08-20T02:10:10.061Z,16.92
2022-08-20T02:13:18.971Z,16.72
2022-08-20T02:16:33.670Z,16.69
2022-08-20T02:19:46.292Z,16.88
2022-08-20T02:22:58.677Z,16.85
2022-08-20T02:26:07.567Z,16.85
2022-08-20T02:29:16.920Z,16.75
2022-08-20T02:32:34.123Z,16.90
2022-08-20T02:35:47.139Z,16.93
2022-08-20T02:38:55.450Z,16.84
2022-08-20T02:42:04.596Z,16.90
2022-08-20T02:45:18.980Z,16.76
2022-08-20T02:48:29.699Z,16.92
2022-08-20T02:51:38.078Z,16.89
2022-08-20T02:54:46.304Z,16.80
2022-08-20T02:57:55.720Z,16.88
2022-08-20T03:01:11.892Z,16.71
2022-08-20T03:04:21.730Z,16.79
2022-08-20T03:07:40.889Z,16.75
2022-08-20T03:10:49.770Z,16.84
2022-08-20T03:13:57.959Z,16.79
2022-08-20T03:17:06.473Z,16.82
2022-08-20T03:20:17.328Z,16.70
2022-08-20T03:23:30.898Z,16.77
2022-08-20T03:26:39.241Z,16.68
2022-08-20T03:29:47.439Z,16.81
2022-08-20T03:32:56.965Z,16.87
2022-08-20T03:36:07.612Z,16.89
2022-08-20T03:39:15.816Z,16.71
2022-08-20T03:42:24.030Z,16.87
2022-08-20T03:45:33.412Z,16.76
2022-08-20T03:48:41.750Z,16.74
2022-08-20T03:51:57.449Z,16.78
2022-08-20T03:55:10.292Z,16.66
2022-08-20T03:58:19.421Z,16.68
2022-08-20T04:01:45.207Z,16.77
2022-08-20T04:04:56.153Z,16.69
2022-08-20T04:08:06.970Z,16.57
2022-08-20T04:11:15.229Z,16.50
2022-08-20T04:14:23.461Z,16.69
2022-08-20T04:17:33.485Z,16.61
2022-08-20T04:20:44.461Z,16.68
2022-08-20T04:23:55.239Z,16.62
2022-08-20T04:27:05.303Z,16.64
2022-08-20T04:30:15.758Z,16.61
2022-08-20T04:33:35.318Z,16.72
2022-08-20T04:36:43.788Z,16.82
2022-08-20T04:40:07.320Z,16.84
2022-08-20T04:43:16.792Z,16.78
2022-08-20T04:46:28.764Z,16.77
2022-08-20T04:49:39.348Z,16.85
2022-08-20T04:52:49.046Z,16.93
2022-08-20T04:56:01.887Z,16.89
2022-08-20T04:59:10.548Z,16.82
2022-08-20T05:02:19.113Z,16.86
2022-08-20T05:05:28.263Z,16.83
2022-08-20T05:08:38.436Z,16.88
2022-08-20T05:11:48.046Z,16.90
2022-08-20T05:14:57.351Z,16.82
2022-08-20T05:18:10.247Z,16.95
2022-08-20T05:21:19.188Z,16.80
2022-08-20T05:24:28.827Z,16.84
2022-08-20T05:27:38.457Z,16.87
2022-08-20T05:30:52.283Z,16.86
2022-08-20T05:34:00.590Z,16.77
2022-08-20T05:37:08.990Z,16.93
2022-08-20T05:40:17.354Z,17.02
2022-08-20T05:43:27.342Z,17.18
2022-08-20T05:46:35.624Z,17.15
2022-08-20T05:49:44.057Z,17.20
2022-08-20T05:52:52.794Z,17.20
2022-08-20T05:56:01.999Z,17.32
2022-08-20T05:59:14.014Z,17.40
2022-08-20T06:02:39.848Z,17.59
2022-08-20T06:05:48.396Z,17.63
2022-08-20T06:08:56.582Z,17.65
2022-08-20T06:12:08.925Z,17.74
2022-08-20T06:15:18.501Z,17.91
2022-08-20T06:18:28.871Z,18.00
2022-08-20T06:21:37.359Z,17.97
2022-08-20T06:24:45.681Z,18.22
2022-08-20T06:27:53.843Z,18.25
2022-08-20T06:31:03.531Z,18.22
2022-08-20T06:34:11.690Z,18.35
2022-08-20T06:37:28.203Z,18.38
2022-08-20T06:40:40.453Z,18.36
2022-08-20T06:43:48.652Z,18.29
2022-08-20T06:47:04.408Z,18.47
2022-08-20T06:50:17.573Z,18.51
2022-08-20T06:53:25.885Z,18.36
2022-08-20T06:56:35.038Z,18.42
2022-08-20T06:59:43.317Z,18.48
2022-08-20T07:02:53.043Z,18.54
2022-08-20T07:06:01.345Z,18.68
2022-08-20T07:09:09.873Z,18.75
2022-08-20T07:12:18.070Z,18.72
2022-08-20T07:15:27.008Z,18.67
2022-08-20T07:18:36.705Z,18.63
2022-08-20T07:21:45.036Z,18.73
2022-08-20T07:24:53.665Z,18.70
2022-08-20T07:28:02.874Z,18.69
2022-08-20T07:31:28.652Z,18.82
2022-08-20T07:34:44.712Z,18.80
2022-08-20T07:37:55.142Z,18.67
2022-08-20T07:41:07.044Z,18.50
2022-08-20T07:44:15.209Z,18.83
2022-08-20T07:47:23.598Z,18.94
2022-08-20T07:50:33.795Z,19.07
2022-08-20T07:53:42.837Z,19.22
2022-08-20T07:56:51.277Z,19.44
2022-08-20T08:00:00.218Z,19.26
2022-08-20T08:03:09.211Z,19.50
2022-08-20T08:06:29.046Z,19.62
2022-08-20T08:09:39.511Z,19.56
2022-08-20T08:12:59.224Z,19.56
2022-08-20T08:16:10.364Z,19.65
2022-08-20T08:19:19.967Z,19.49
2022-08-20T08:22:31.808Z,19.43
2022-08-20T08:25:42.230Z,19.48
2022-08-20T08:28:51.347Z,19.31
2022-08-20T08:32:02.882Z,19.23
2022-08-20T08:35:11.254Z,19.40
2022-08-20T08:38:22.944Z,19.40
2022-08-20T08:41:34.891Z,19.50
2022-08-20T08:44:43.464Z,19.78
2022-08-20T08:47:52.103Z,19.75
2022-08-20T08:51:11.861Z,19.56
2022-08-20T08:54:25.825Z,19.64
2022-08-20T08:57:34.318Z,19.48
2022-08-20T09:00:52.788Z,19.38
2022-08-20T09:04:05.843Z,19.30
2022-08-20T09:07:17.976Z,19.37
2022-08-20T09:10:34.063Z,19.67
2022-08-20T09:13:43.827Z,19.82
2022-08-20T09:16:53.580Z,19.75
2022-08-20T09:20:01.929Z,19.80
2022-08-20T09:23:10.521Z,19.56
2022-08-20T09:26:20.290Z,19.37
2022-08-20T09:29:29.451Z,19.39
2022-08-20T09:32:37.905Z,19.16
2022-08-20T09:35:46.751Z,19.41
2022-08-20T09:38:55.726Z,19.45
2022-08-20T09:42:17.635Z,19.25
2022-08-20T09:45:26.413Z,19.55
2022-08-20T09:48:34.738Z,19.55
2022-08-20T09:51:43.280Z,19.33
2022-08-20T09:54:54.842Z,19.23
2022-08-20T09:58:24.393Z,19.39
2022-08-20T10:01:33.330Z,19.52
2022-08-20T10:04:41.921Z,19.81
2022-08-20T10:07:50.502Z,19.93
2022-08-20T10:10:58.955Z,19.90
2022-08-20T10:14:09.181Z,20.22
2022-08-20T10:17:17.418Z,20.23
2022-08-20T10:20:27.059Z,20.50
2022-08-20T10:23:35.524Z,20.77
2022-08-20T10:26:44.046Z,21.07
2022-08-20T10:29:54.349Z,21.00
2022-08-20T10:33:03.505Z,21.06
2022-08-20T10:36:16.822Z,21.01
2022-08-20T10:39:26.038Z,21.33
2022-08-20T10:42:37.947Z,21.28
2022-08-20T10:45:52.769Z,21.46
2022-08-20T10:49:01.441Z,21.50
2022-08-20T10:52:09.813Z,21.20
2022-08-20T10:55:18.583Z,21.54
2022-08-20T10:58:35.681Z,21.68
2022-08-20T11:01:49.116Z,21.20
2022-08-20T11:04:58.006Z,20.85
2022-08-20T11:08:07.615Z,20.70
2022-08-20T11:11:16.132Z,20.53
2022-08-20T11:14:25.144Z,20.28
2022-08-20T11:17:37.948Z,19.71
2022-08-20T11:21:22.975Z,19.59
2022-08-20T11:24:31.394Z,19.65
2022-08-20T11:27:45.173Z,19.89
2022-08-20T11:30:53.715Z,20.14
2022-08-20T11:34:03.927Z,20.29
2022-08-20T11:37:13.991Z,20.47
2022-08-20T11:40:26.189Z,20.74
2022-08-20T11:43:38.484Z,21.11
2022-08-20T11:46:47.991Z,21.06
2022-08-20T11:50:04.269Z,21.15
2022-08-20T11:53:13.031Z,21.06
2022-08-20T11:56:23.486Z,21.20
2022-08-20T11:59:37.726Z,21.33
2022-08-20T12:02:46.218Z,21.31
2022-08-20T12:05:59.088Z,21.57
2022-08-20T12:09:10.754Z,21.62
2022-08-20T12:12:22.811Z,21.83
2022-08-20T12:15:31.956Z,21.99
2022-08-20T12:18:42.342Z,21.84
2022-08-20T12:21:52.792Z,21.61
2022-08-20T12:25:01.754Z,22.05
2022-08-20T12:28:14.176Z,21.80
2022-08-20T12:31:23.175Z,22.00
2022-08-20T12:34:32.436Z,22.00
2022-08-20T12:37:44.184Z,22.36
2022-08-20T12:40:55.250Z,22.65
2022-08-20T12:44:07.225Z,22.79
2022-08-20T12:47:29.058Z,22.26
2022-08-20T12:50:42.682Z,22.16
2022-08-20T12:53:55.004Z,22.58
2022-08-20T12:57:03.881Z,22.70
2022-08-20T13:00:24.322Z,22.75
2022-08-20T13:03:41.398Z,22.92
2022-08-20T13:06:53.312Z,23.11
2022-08-20T13:10:07.619Z,23.11
2022-08-20T13:13:21.338Z,23.23
2022-08-20T13:16:29.970Z,23.58
2022-08-20T13:19:40.441Z,23.96
2022-08-20T13:22:48.999Z,23.74
2022-08-20T13:26:00.011Z,23.30
2022-08-20T13:29:08.455Z,23.15
2022-08-20T13:32:21.721Z,23.24
2022-08-20T13:35:33.157Z,23.62
2022-08-20T13:38:43.210Z,23.30
2022-08-20T13:41:53.179Z,23.54
2022-08-20T13:45:02.636Z,23.66
2022-08-20T13:48:16.583Z,23.98
2022-08-20T13:51:27.691Z,24.32
2022-08-20T13:54:39.087Z,24.44
2022-08-20T13:57:52.712Z,24.04
2022-08-20T14:01:01.404Z,24.27
2022-08-20T14:04:12.615Z,24.17
2022-08-20T14:07:33.068Z,24.09
2022-08-20T14:10:44.623Z,23.86
2022-08-20T14:13:59.944Z,23.69
2022-08-20T14:17:25.445Z,23.20
2022-08-20T14:20:38.660Z,23.52
2022-08-20T14:23:47.829Z,23.44
2022-08-20T14:26:56.673Z,23.16
2022-08-20T14:30:12.619Z,23.04
2022-08-20T14:33:22.034Z,22.65
2022-08-20T14:36:30.390Z,22.59
2022-08-20T14:39:41.194Z,21.67
2022-08-20T14:42:54.701Z,20.78
2022-08-20T14:46:05.291Z,19.90
2022-08-20T14:49:13.920Z,19.37
2022-08-20T14:52:28.149Z,19.26
2022-08-20T14:55:39.724Z,19.25
2022-08-20T14:58:48.697Z,19.20
2022-08-20T15:01:59.813Z,19.40
2022-08-20T15:05:09.819Z,19.26
2022-08-20T15:08:18.503Z,19.29
2022-08-20T15:11:31.257Z,19.15
2022-08-20T15:14:42.618Z,18.97
2022-08-20T15:17:57.118Z,18.66
2022-08-20T15:21:10.113Z,18.55
2022-08-20T15:24:19.697Z,18.44
2022-08-20T15:27:28.300Z,18.37
2022-08-20T15:30:39.954Z,18.27
2022-08-20T15:33:50.987Z,18.13
2022-08-20T15:36:59.377Z,18.06
2022-08-20T15:40:16.000Z,17.64
2022-08-20T15:43:25.089Z,17.18
2022-08-20T15:46:37.448Z,16.96
2022-08-20T15:49:56.264Z,16.48
2022-08-20T15:53:14.865Z,16.09
2022-08-20T15:56:50.885Z,16.10
2022-08-20T16:00:13.039Z,16.09
2022-08-20T16:04:08.744Z,16.14
2022-08-20T16:07:26.253Z,16.09
2022-08-20T16:10:49.912Z,16.14
2022-08-20T16:14:15.471Z,16.07
2022-08-20T16:17:32.410Z,16.13
2022-08-20T16:20:47.851Z,16.12
2022-08-20T16:23:58.339Z,16.06
2022-08-20T16:27:21.482Z,16.07
2022-08-20T16:30:44.812Z,16.20
2022-08-20T16:34:33.540Z,16.24
2022-08-20T16:37:52.668Z,16.23
2022-08-20T16:41:15.729Z,16.26
2022-08-20T16:44:34.291Z,16.19
2022-08-20T16:47:43.033Z,16.31
2022-08-20T16:51:02.773Z,16.22
2022-08-20T16:54:13.445Z,16.25
2022-08-20T16:57:24.446Z,16.29
2022-08-20T17:00:35.593Z,16.39
2022-08-20T17:03:52.031Z,16.40
2022-08-20T17:07:03.413Z,16.36
2022-08-20T17:10:23.249Z,16.31
2022-08-20T17:13:36.984Z,16.23
2022-08-20T17:16:50.381Z,16.16
2022-08-20T17:20:05.893Z,16.15
2022-08-20T17:23:18.399Z,16.19
2022-08-20T17:26:35.240Z,16.16
2022-08-20T17:29:55.061Z,16.30
2022-08-20T17:33:07.515Z,16.31
2022-08-20T17:36:26.238Z,16.37
2022-08-20T17:39:35.611Z,16.52
2022-08-20T17:42:57.074Z,16.52
2022-08-20T17:46:16.492Z,16.54
2022-08-20T17:49:36.332Z,16.44
2022-08-20T17:52:51.625Z,16.52
2022-08-20T17:56:17.529Z,16.56
2022-08-20T17:59:59.777Z,16.56
2022-08-20T18:03:20.280Z,16.51
2022-08-20T18:06:39.422Z,16.51
2022-08-20T18:09:58.538Z,16.56
2022-08-20T18:13:17.071Z,16.64
2022-08-20T18:16:32.109Z,16.63
2022-08-20T18:20:44.229Z,16.70
2022-08-20T18:24:01.973Z,16.63
2022-08-20T18:27:17.884Z,16.69
2022-08-20T18:30:29.068Z,16.77
2022-08-20T18:33:42.091Z,16.68
2022-08-20T18:37:01.633Z,16.69
2022-08-20T18:40:23.382Z,16.66
2022-08-20T18:43:32.667Z,16.69
2022-08-20T18:46:55.443Z,16.62
2022-08-20T18:50:21.316Z,16.59
2022-08-20T18:53:34.657Z,16.64
2022-08-20T18:56:44.174Z,16.62
2022-08-20T19:00:01.553Z,16.65
2022-08-20T19:03:26.259Z,16.63
2022-08-20T19:06:45.444Z,16.67
2022-08-20T19:10:28.527Z,16.61
2022-08-20T19:14:00.997Z,16.66
2022-08-20T19:17:17.811Z,16.58
2022-08-20T19:20:32.358Z,16.65
2022-08-20T19:23:49.151Z,16.70
2022-08-20T19:27:04.478Z,16.62
2022-08-20T19:30:13.299Z,16.57
2022-08-20T19:33:31.000Z,16.55
2022-08-20T19:36:43.206Z,16.59
2022-08-20T19:39:53.574Z,16.66
2022-08-20T19:43:07.415Z,16.61
2022-08-20T19:46:22.199Z,16.64
2022-08-20T19:49:42.842Z,16.66
2022-08-20T19:53:01.710Z,16.61
2022-08-20T19:56:15.866Z,16.61
2022-08-20T19:59:25.722Z,16.54
2022-08-20T20:02:37.296Z,16.64
2022-08-20T20:05:54.368Z,16.57
2022-08-20T20:09:07.780Z,16.53
2022-08-20T20:12:22.527Z,16.48
2022-08-20T20:15:33.161Z,16.58
2022-08-20T20:18:44.097Z,16.55
2022-08-20T20:22:04.845Z,16.48
2022-08-20T20:25:23.330Z,16.46
2022-08-20T20:28:44.777Z,16.37
2022-08-20T20:31:58.536Z,16.34
2022-08-20T20:35:08.609Z,16.38
2022-08-20T20:38:28.626Z,16.46
2022-08-20T20:41:38.813Z,16.44
2022-08-20T20:44:47.228Z,16.41
2022-08-20T20:47:57.723Z,16.46
2022-08-20T20:51:16.948Z,16.42
2022-08-20T20:54:32.016Z,16.50
2022-08-20T20:57:40.831Z,16.49
2022-08-20T21:00:49.210Z,16.46
2022-08-20T21:03:59.356Z,16.53
2022-08-20T21:07:11.619Z,16.58
2022-08-20T21:10:23.008Z,16.58
2022-08-20T21:13:31.541Z,16.60
2022-08-20T21:16:40.350Z,16.63
2022-08-20T21:19:52.371Z,16.66
2022-08-20T21:23:00.899Z,16.62
2022-08-20T21:26:09.830Z,16.65
2022-08-20T21:29:30.545Z,16.61
2022-08-20T21:32:41.025Z,16.51
2022-08-20T21:35:51.852Z,16.45
2022-08-20T21:39:00.395Z,16.65
2022-08-20T21:42:28.455Z,16.70
2022-08-20T21:45:38.129Z,16.63
2022-08-20T21:48:48.244Z,16.61
2022-08-20T21:51:59.273Z,16.77
2022-08-20T21:55:08.772Z,16.72
2022-08-20T21:58:20.491Z,16.70
2022-08-20T22:01:29.813Z,16.66
2022-08-20T22:04:38.448Z,16.64
2022-08-20T22:07:48.444Z,16.78
2022-08-20T22:10:58.529Z,16.62
2022-08-20T22:14:12.314Z,16.56
2022-08-20T22:17:21.776Z,16.57
2022-08-20T22:20:31.360Z,16.51
2022-08-20T22:23:41.564Z,16.47
2022-08-20T22:26:51.536Z,16.55
2022-08-20T22:29:59.909Z,16.40
2022-08-20T22:33:15.530Z,16.55
2022-08-20T22:36:26.020Z,16.45
2022-08-20T22:39:36.154Z,16.47
2022-08-20T22:42:44.529Z,16.44
2022-08-20T22:46:00.852Z,16.52
2022-08-20T22:49:17.335Z,16.49
2022-08-20T22:52:27.120Z,16.61
2022-08-20T22:55:38.531Z,16.53
2022-08-20T22:58:48.210Z,16.48
2022-08-20T23:01:59.084Z,16.54
2022-08-20T23:05:13.157Z,16.49
2022-08-20T23:08:21.460Z,16.50
2022-08-20T23:11:31.871Z,16.52
2022-08-20T23:14:40.521Z,16.53
2022-08-20T23:17:49.302Z,16.46
2022-08-20T23:20:59.119Z,16.40
2022-08-20T23:24:08.105Z,16.45
2022-08-20T23:27:26.500Z,16.46
2022-08-20T23:30:35.786Z,16.43
2022-08-20T23:33:45.191Z,16.54
2022-08-20T23:37:01.238Z,16.46
2022-08-20T23:40:11.771Z,16.38
2022-08-20T23:43:22.164Z,16.46
2022-08-20T23:46:36.159Z,16.54
2022-08-20T23:49:45.274Z,16.47
2022-08-20T23:52:54.048Z,16.56
2022-08-20T23:56:03.059Z,16.54
2022-08-20T23:59:13.137Z,16.38
